Time;durP1;ratioP1;P1;durP2;ratioP2;P2;SDS_P1;SDS_P2;PMS_P1;PMS_P2;Temp;Humidity;BMP_temperature;BMP_pressure;BME280_temperature;BME280_humidity;BME280_pressure;Samples;Min_cycle;Max_cycle;Signal;HPM_P1;HPM_P2
2022/10/19 00:02:04;;;;;;;5.70;1.50;;;10.40;99.90;;;;;;5030859;28;20055;-81
2022/10/19 00:04:30;;;;;;;9.10;1.50;;;10.40;99.90;;;;;;5046114;28;20087;-80
2022/10/19 00:06:55;;;;;;;6.47;1.33;;;10.20;99.90;;;;;;5036594;28;20060;-80
2022/10/19 00:09:21;;;;;;;10.13;1.40;;;10.10;99.90;;;;;;5028584;28;20053;-81
2022/10/19 00:11:48;;;;;;;2.08;1.13;;;10.00;99.90;;;;;;5046950;28;20074;-81
2022/10/19 00:14:24;;;;;;;9.02;1.60;;;10.00;99.90;;;;;;5039032;28;20049;-81
2022/10/19 00:16:52;;;;;;;4.95;1.25;;;9.90;99.90;;;;;;5039774;28;20049;-80
2022/10/19 00:19:23;;;;;;;4.13;1.88;;;9.90;99.90;;;;;;5042604;28;20072;-80
2022/10/19 00:21:49;;;;;;;3.30;1.45;;;9.80;99.90;;;;;;5043640;28;20029;-80
2022/10/19 00:24:15;;;;;;;9.68;1.77;;;9.80;99.90;;;;;;5034723;28;20091;-80
2022/10/19 00:26:41;;;;;;;5.15;1.58;;;9.70;99.90;;;;;;5028361;28;20050;-80
2022/10/19 00:29:07;;;;;;;4.28;1.95;;;9.60;99.90;;;;;;5039837;28;20042;-79
2022/10/19 00:31:33;;;;;;;2.85;1.55;;;9.60;99.90;;;;;;5041088;28;20105;-80
2022/10/19 00:33:59;;;;;;;8.52;1.48;;;9.50;99.90;;;;;;5042665;28;20598;-80
2022/10/19 00:36:28;;;;;;;10.18;1.50;;;9.50;99.90;;;;;;5044404;28;20060;-80
2022/10/19 00:38:56;;;;;;;4.95;1.60;;;9.40;99.90;;;;;;5044412;28;20041;-80
2022/10/19 00:41:23;;;;;;;4.40;1.50;;;9.30;99.90;;;;;;5031203;28;20056;-80
2022/10/19 00:43:54;;;;;;;8.38;1.80;;;9.30;99.90;;;;;;5044863;28;20045;-80
2022/10/19 00:46:21;;;;;;;6.15;2.00;;;9.20;99.90;;;;;;5041960;28;20053;-80
2022/10/19 00:48:47;;;;;;;5.25;1.85;;;9.20;99.90;;;;;;5040659;28;20037;-81
2022/10/19 00:51:13;;;;;;;7.45;1.92;;;9.10;99.90;;;;;;5043331;28;20088;-81
2022/10/19 00:53:40;;;;;;;9.30;1.58;;;9.10;99.90;;;;;;5041175;28;20072;-81
2022/10/19 00:56:11;;;;;;;1.88;1.77;;;9.00;99.90;;;;;;5043758;28;20087;-80
2022/10/19 00:58:37;;;;;;;4.57;1.55;;;9.00;99.90;;;;;;5044302;28;20072;-83
2022/10/19 01:01:04;;;;;;;10.80;1.42;;;9.00;99.90;;;;;;5017199;28;20052;-80
2022/10/19 01:03:31;;;;;;;6.32;1.40;;;8.90;99.90;;;;;;5049651;28;20116;-81
2022/10/19 01:05:58;;;;;;;9.90;2.15;;;8.90;99.90;;;;;;5022726;28;20049;-80
2022/10/19 01:08:25;;;;;;;3.65;1.70;;;8.80;99.90;;;;;;5043793;28;20073;-81
2022/10/19 01:11:03;;;;;;;4.80;1.48;;;8.80;99.90;;;;;;5041735;28;20037;-80
2022/10/19 01:13:49;;;;;;;5.00;1.75;;;8.70;99.90;;;;;;5047453;28;20111;-81
2022/10/19 01:16:39;;;;;;;5.28;1.23;;;8.70;99.90;;;;;;5033387;28;20057;-80
2022/10/19 01:19:32;;;;;;;3.25;1.38;;;8.70;99.90;;;;;;5027563;28;20048;-80
2022/10/19 01:22:13;;;;;;;5.05;1.55;;;8.70;99.90;;;;;;5040418;28;20076;-81
2022/10/19 01:24:55;;;;;;;10.68;1.85;;;8.70;99.90;;;;;;5042495;28;20100;-81
2022/10/19 01:27:57;;;;;;;7.35;1.45;;;8.70;99.90;;;;;;5043947;28;20041;-81
2022/10/19 01:30:32;;;;;;;2.25;1.52;;;8.80;99.90;;;;;;5040525;28;20056;-81
2022/10/19 01:33:06;;;;;;;9.60;2.25;;;8.80;99.90;;;;;;5043190;28;20049;-80
2022/10/19 01:36:04;;;;;;;1.48;0.95;;;8.90;99.90;;;;;;5040904;28;20042;-80
2022/10/19 01:38:47;;;;;;;1.83;1.40;;;8.90;99.90;;;;;;5048513;28;20030;-81
2022/10/19 01:41:27;;;;;;;8.68;1.33;;;8.90;99.90;;;;;;5045750;28;20057;-80
2022/10/19 01:44:26;;;;;;;9.07;1.50;;;9.00;99.90;;;;;;5042073;28;20044;-80
2022/10/19 01:46:57;;;;;;;1.98;1.13;;;9.00;99.90;;;;;;5042644;28;20507;-80
2022/10/19 01:49:31;;;;;;;7.93;2.72;;;9.00;99.90;;;;;;5044263;28;20133;-81
2022/10/19 01:52:00;;;;;;;11.95;1.60;;;9.10;99.90;;;;;;5039121;28;20045;-80
2022/10/19 01:54:29;;;;;;;3.65;1.48;;;9.10;99.90;;;;;;5046689;28;20073;-81
2022/10/19 01:56:59;;;;;;;5.68;1.50;;;9.10;99.90;;;;;;5037400;28;20041;-80
2022/10/19 01:59:26;;;;;;;4.60;1.45;;;9.10;99.90;;;;;;5038031;28;20053;-80
2022/10/19 02:01:53;;;;;;;5.70;2.05;;;9.20;99.90;;;;;;5039395;28;20045;-80
2022/10/19 02:04:21;;;;;;;4.57;1.70;;;9.20;99.90;;;;;;5037348;28;20102;-81
2022/10/19 02:06:52;;;;;;;4.68;1.42;;;9.20;99.90;;;;;;5038725;28;20037;-80
2022/10/19 02:09:19;;;;;;;6.60;1.50;;;9.30;99.90;;;;;;5038685;28;20049;-81
2022/10/19 02:11:48;;;;;;;9.43;1.77;;;9.30;99.90;;;;;;5023564;28;20057;-81
2022/10/19 02:14:15;;;;;;;3.90;1.42;;;9.30;99.90;;;;;;5039426;28;20041;-80
2022/10/19 02:16:48;;;;;;;1.75;1.13;;;9.30;99.90;;;;;;5044197;28;20036;-81
2022/10/19 02:19:15;;;;;;;4.57;1.30;;;9.30;99.90;;;;;;5036587;28;20049;-80
2022/10/19 02:21:41;;;;;;;3.88;1.20;;;9.30;99.90;;;;;;5028553;28;20041;-81
2022/10/19 02:24:07;;;;;;;8.38;1.10;;;9.30;99.90;;;;;;5038224;28;20104;-80
2022/10/19 02:26:33;;;;;;;2.80;1.10;;;9.30;99.90;;;;;;5026149;28;20068;-81
2022/10/19 02:28:58;;;;;;;3.95;1.08;;;9.30;99.90;;;;;;5037626;28;20116;-81
2022/10/19 02:31:25;;;;;;;5.47;0.90;;;9.20;99.90;;;;;;5040754;28;20065;-80
2022/10/19 02:33:52;;;;;;;5.68;1.00;;;9.20;99.90;;;;;;5040983;28;20086;-80
2022/10/19 02:36:18;;;;;;;6.40;0.93;;;9.20;99.90;;;;;;5038785;28;20120;-81
2022/10/19 02:38:44;;;;;;;3.45;0.93;;;9.20;99.90;;;;;;5039264;28;20064;-81
2022/10/19 02:41:25;;;;;;;6.40;1.48;;;9.20;99.90;;;;;;5049436;28;20045;-81
2022/10/19 02:43:58;;;;;;;5.90;0.80;;;9.30;99.90;;;;;;5037597;28;20607;-81
2022/10/19 02:47:08;;;;;;;1.48;1.00;;;9.20;99.90;;;;;;5044790;28;20050;-81
2022/10/19 02:49:36;;;;;;;4.70;1.15;;;9.20;99.90;;;;;;5049606;28;20059;-80
2022/10/19 02:52:10;;;;;;;3.83;1.23;;;9.20;99.90;;;;;;5039984;28;20051;-80
2022/10/19 02:54:39;;;;;;;3.13;0.95;;;9.20;99.90;;;;;;5037242;28;20045;-80
2022/10/19 02:57:21;;;;;;;10.35;1.15;;;9.20;99.90;;;;;;5043055;28;20048;-80
2022/10/19 02:59:47;;;;;;;1.10;0.68;;;9.20;99.90;;;;;;5054684;28;20079;-81
2022/10/19 03:02:14;;;;;;;5.18;1.42;;;9.20;99.90;;;;;;5029662;28;20049;-81
2022/10/19 03:04:40;;;;;;;3.80;0.90;;;9.20;99.90;;;;;;5035490;28;20033;-81
2022/10/19 03:07:10;;;;;;;4.78;1.23;;;9.10;99.90;;;;;;5029632;28;20139;-81
2022/10/19 03:09:36;;;;;;;7.45;1.27;;;9.20;99.90;;;;;;5034660;28;20045;-81
2022/10/19 03:12:02;;;;;;;5.45;1.10;;;9.20;99.90;;;;;;5036671;28;20117;-81
2022/10/19 03:14:27;;;;;;;9.63;1.13;;;9.20;99.90;;;;;;5044684;28;20049;-82
2022/10/19 03:16:53;;;;;;;3.88;1.30;;;9.30;99.90;;;;;;5030071;28;20049;-81
2022/10/19 03:19:19;;;;;;;6.35;1.70;;;9.30;99.90;;;;;;5029248;28;20115;-81
2022/10/19 03:21:45;;;;;;;8.68;1.30;;;9.30;99.90;;;;;;5051704;28;20045;-80
2022/10/19 03:24:11;;;;;;;2.40;1.42;;;9.30;99.90;;;;;;5046289;28;20060;-81
2022/10/19 03:26:36;;;;;;;6.88;1.50;;;9.40;99.90;;;;;;5039753;28;20068;-81
2022/10/19 03:29:03;;;;;;;2.78;1.20;;;9.40;99.90;;;;;;5040921;28;20053;-81
2022/10/19 03:31:28;;;;;;;4.72;2.15;;;9.40;99.90;;;;;;5047234;28;20101;-81
2022/10/19 03:33:54;;;;;;;2.42;1.08;;;9.40;99.90;;;;;;5030514;28;20065;-80
2022/10/19 03:36:28;;;;;;;6.35;1.50;;;9.40;99.90;;;;;;5036824;28;20485;-80
2022/10/19 03:38:56;;;;;;;4.50;1.10;;;9.40;99.90;;;;;;5046366;28;20073;-81
2022/10/19 03:41:24;;;;;;;6.63;1.20;;;9.40;99.90;;;;;;5029131;28;20061;-80
2022/10/19 03:43:50;;;;;;;3.83;1.45;;;9.40;99.90;;;;;;5043699;28;20097;-81
2022/10/19 03:46:16;;;;;;;6.07;1.27;;;9.40;99.90;;;;;;5047654;28;20069;-81
2022/10/19 03:48:42;;;;;;;7.07;1.35;;;9.40;99.90;;;;;;5047925;28;20171;-81
2022/10/19 03:51:13;;;;;;;2.30;1.50;;;9.40;99.90;;;;;;5031820;28;20129;-81
2022/10/19 03:53:40;;;;;;;6.43;1.42;;;9.40;99.90;;;;;;5039375;28;20037;-81
2022/10/19 03:56:17;;;;;;;5.95;2.90;;;9.50;99.90;;;;;;5047664;28;20049;-80
2022/10/19 03:58:45;;;;;;;6.65;1.38;;;9.50;99.90;;;;;;5054004;28;20796;-80
2022/10/19 04:01:17;;;;;;;4.57;1.48;;;9.50;99.90;;;;;;5044519;28;20089;-81
2022/10/19 04:03:43;;;;;;;7.32;1.25;;;9.50;99.90;;;;;;5040968;28;20049;-81
2022/10/19 04:06:15;;;;;;;5.40;1.33;;;9.50;99.90;;;;;;5044309;28;20068;-81
2022/10/19 04:08:40;;;;;;;4.20;1.15;;;9.50;99.90;;;;;;5038834;28;20037;-80
2022/10/19 04:11:09;;;;;;;6.95;1.17;;;9.50;99.90;;;;;;5038009;28;20049;-80
2022/10/19 04:13:35;;;;;;;5.25;1.35;;;9.60;99.90;;;;;;5032970;28;20170;-81
2022/10/19 04:16:01;;;;;;;5.78;0.95;;;9.60;99.90;;;;;;5029684;28;20630;-81
2022/10/19 04:18:27;;;;;;;2.22;1.20;;;9.60;99.90;;;;;;5042406;28;20049;-81
2022/10/19 04:21:01;;;;;;;10.50;1.55;;;9.60;99.90;;;;;;5044762;28;20467;-81
2022/10/19 04:23:29;;;;;;;3.60;1.23;;;9.60;99.90;;;;;;5038600;28;20040;-80
2022/10/19 04:26:02;;;;;;;6.93;1.83;;;9.60;99.90;;;;;;5044124;28;20071;-81
2022/10/19 04:28:28;;;;;;;6.57;1.35;;;9.60;99.90;;;;;;5058842;28;20071;-80
2022/10/19 04:30:54;;;;;;;3.83;1.42;;;9.70;99.90;;;;;;5047184;28;20057;-82
2022/10/19 04:33:20;;;;;;;3.53;1.10;;;9.70;99.90;;;;;;5040681;28;20052;-81
2022/10/19 04:35:46;;;;;;;5.10;1.13;;;9.70;99.90;;;;;;5041344;28;20033;-82
2022/10/19 04:38:12;;;;;;;6.28;1.60;;;9.70;99.90;;;;;;5026093;28;20114;-80
2022/10/19 04:40:37;;;;;;;1.50;0.85;;;9.70;99.90;;;;;;5040217;28;20056;-80
2022/10/19 04:43:04;;;;;;;7.15;2.65;;;9.70;99.90;;;;;;5035945;28;20515;-80
2022/10/19 04:45:30;;;;;;;5.53;1.25;;;9.70;99.90;;;;;;5039713;28;20477;-81
2022/10/19 04:47:56;;;;;;;7.93;1.35;;;9.70;99.90;;;;;;5039473;28;20087;-81
2022/10/19 04:50:25;;;;;;;5.50;1.20;;;9.70;99.90;;;;;;5046420;28;20052;-82
2022/10/19 04:52:50;;;;;;;4.53;1.63;;;9.70;99.90;;;;;;5022587;28;20045;-81
2022/10/19 04:55:16;;;;;;;3.80;1.00;;;9.70;99.90;;;;;;5054080;28;20060;-82
2022/10/19 04:57:42;;;;;;;2.13;1.08;;;9.70;99.90;;;;;;5038367;28;20052;-82
2022/10/19 05:00:08;;;;;;;5.90;1.30;;;9.70;99.90;;;;;;5043547;28;20400;-81
2022/10/19 05:02:34;;;;;;;9.10;1.50;;;9.60;99.90;;;;;;5041168;28;20049;-84
2022/10/19 05:05:00;;;;;;;6.95;1.60;;;9.60;99.90;;;;;;5026965;28;20048;-83
2022/10/19 05:07:25;;;;;;;10.20;5.63;;;9.60;99.90;;;;;;5047459;28;20052;-83
2022/10/19 05:09:51;;;;;;;6.13;2.80;;;9.60;99.90;;;;;;5027942;28;20136;-83
2022/10/19 05:12:17;;;;;;;4.53;1.48;;;9.70;99.90;;;;;;5019099;28;20053;-83
2022/10/19 05:14:42;;;;;;;1.92;1.15;;;9.60;99.90;;;;;;5040216;28;20052;-83
2022/10/19 05:17:08;;;;;;;33.10;16.92;;;9.70;99.90;;;;;;5041928;28;20045;-83
2022/10/19 05:19:34;;;;;;;5.22;1.90;;;9.70;99.90;;;;;;5051226;28;20084;-82
2022/10/19 05:21:59;;;;;;;4.60;2.03;;;9.70;99.90;;;;;;5038201;28;20077;-83
2022/10/19 05:24:25;;;;;;;5.68;1.90;;;9.60;99.90;;;;;;5039318;28;20072;-84
2022/10/19 05:26:51;;;;;;;50.88;21.73;;;9.60;99.90;;;;;;5025704;28;20463;-83
2022/10/19 05:29:17;;;;;;;15.18;5.30;;;9.60;99.90;;;;;;5037360;28;20072;-83
2022/10/19 05:31:43;;;;;;;7.00;2.00;;;9.50;99.90;;;;;;5022916;28;20045;-83
2022/10/19 05:34:08;;;;;;;12.07;2.40;;;9.50;99.90;;;;;;5037773;28;20083;-83
2022/10/19 05:36:37;;;;;;;7.68;2.80;;;9.50;99.90;;;;;;5037960;28;20052;-83
2022/10/19 05:39:15;;;;;;;5.03;1.60;;;9.40;99.90;;;;;;5038630;28;20117;-83
2022/10/19 05:41:44;;;;;;;2.85;1.50;;;9.40;99.90;;;;;;5055269;28;20068;-82
2022/10/19 05:44:16;;;;;;;5.75;1.33;;;9.40;99.90;;;;;;5031491;28;20049;-82
2022/10/19 05:46:42;;;;;;;4.05;1.80;;;9.40;99.90;;;;;;5046445;28;20045;-81
2022/10/19 05:49:10;;;;;;;7.35;3.15;;;9.40;99.90;;;;;;5040048;28;20075;-81
2022/10/19 05:51:36;;;;;;;18.63;10.85;;;9.40;99.90;;;;;;5022257;28;20047;-81
2022/10/19 05:54:02;;;;;;;13.23;5.75;;;9.40;99.90;;;;;;5049918;28;20059;-80
2022/10/19 05:56:30;;;;;;;19.75;9.05;;;9.40;99.90;;;;;;5054879;28;20045;-80
2022/10/19 05:58:57;;;;;;;9.18;3.55;;;9.40;99.90;;;;;;5038325;28;20140;-81
2022/10/19 06:01:25;;;;;;;3.63;1.98;;;9.40;99.90;;;;;;5038680;28;20085;-81
2022/10/19 06:03:53;;;;;;;7.40;2.20;;;9.40;99.90;;;;;;5044138;28;20092;-80
2022/10/19 06:06:19;;;;;;;4.15;1.65;;;9.50;99.90;;;;;;5052389;28;20100;-81
2022/10/19 06:08:45;;;;;;;8.02;1.58;;;9.50;99.90;;;;;;5054751;28;20464;-81
2022/10/19 06:11:18;;;;;;;2.78;1.50;;;9.60;99.90;;;;;;5059954;28;20055;-81
2022/10/19 06:13:45;;;;;;;8.98;2.28;;;9.60;99.90;;;;;;5041195;28;20099;-81
2022/10/19 06:16:13;;;;;;;5.03;2.30;;;9.60;99.90;;;;;;5059345;28;20068;-82
2022/10/19 06:18:40;;;;;;;13.38;2.20;;;9.60;99.90;;;;;;5052813;28;20136;-81
2022/10/19 06:21:09;;;;;;;7.10;2.33;;;9.60;99.90;;;;;;5027260;28;20053;-82
2022/10/19 06:23:35;;;;;;;5.95;1.40;;;9.70;99.90;;;;;;5031825;28;20069;-81
2022/10/19 06:26:07;;;;;;;4.07;1.80;;;9.70;99.90;;;;;;5037913;28;20065;-81
2022/10/19 06:28:34;;;;;;;2.97;1.17;;;9.70;99.90;;;;;;5040657;28;20060;-81
2022/10/19 06:31:00;;;;;;;14.35;1.88;;;9.80;99.90;;;;;;5039047;28;20099;-81
2022/10/19 06:33:27;;;;;;;6.57;1.60;;;9.80;99.90;;;;;;5022285;28;20111;-81
2022/10/19 06:35:53;;;;;;;4.30;1.45;;;9.80;99.90;;;;;;5021416;28;20049;-81
2022/10/19 06:38:18;;;;;;;4.35;1.50;;;9.90;99.90;;;;;;5051145;28;20487;-81
2022/10/19 06:40:44;;;;;;;5.90;1.60;;;9.90;99.90;;;;;;5043220;28;20045;-81
2022/10/19 06:43:10;;;;;;;3.03;1.38;;;9.80;99.90;;;;;;5040235;28;20049;-81
2022/10/19 06:45:38;;;;;;;11.38;1.75;;;9.90;99.90;;;;;;5022583;28;20105;-81
2022/10/19 06:48:05;;;;;;;7.80;2.05;;;9.90;99.90;;;;;;5036717;28;20140;-81
2022/10/19 06:50:31;;;;;;;3.70;1.40;;;10.00;99.90;;;;;;5037397;28;20049;-81
2022/10/19 06:53:00;;;;;;;3.10;1.08;;;10.00;99.90;;;;;;5037608;28;20057;-81
2022/10/19 06:55:26;;;;;;;3.50;0.98;;;10.10;99.90;;;;;;5039417;28;20111;-81
2022/10/19 06:57:51;;;;;;;11.95;1.95;;;10.10;99.90;;;;;;5022139;28;20440;-81
2022/10/19 07:00:17;;;;;;;11.48;1.98;;;10.20;99.90;;;;;;5037658;28;20084;-80
2022/10/19 07:02:43;;;;;;;5.45;1.58;;;10.20;99.90;;;;;;5038697;28;20046;-81
2022/10/19 07:05:09;;;;;;;4.03;0.98;;;10.30;99.90;;;;;;5021058;28;20088;-80
2022/10/19 07:07:35;;;;;;;7.13;1.00;;;10.30;99.90;;;;;;5038092;28;20071;-81
2022/10/19 07:10:01;;;;;;;4.53;1.02;;;10.40;99.90;;;;;;5021671;28;20053;-81
2022/10/19 07:12:26;;;;;;;7.55;1.30;;;10.40;99.90;;;;;;5021289;28;20049;-81
2022/10/19 07:14:54;;;;;;;9.27;2.67;;;10.40;99.90;;;;;;5039300;28;20092;-81
2022/10/19 07:17:20;;;;;;;2.90;1.00;;;10.50;99.90;;;;;;5037393;28;20053;-80
2022/10/19 07:19:45;;;;;;;5.35;1.50;;;10.50;99.90;;;;;;5038393;28;20072;-81
2022/10/19 07:22:11;;;;;;;8.50;2.13;;;10.50;99.90;;;;;;5037048;28;20107;-81
2022/10/19 07:24:37;;;;;;;13.32;1.33;;;10.50;99.90;;;;;;5022004;28;20053;-81
2022/10/19 07:27:03;;;;;;;2.60;1.13;;;10.50;99.90;;;;;;5070970;28;20072;-82
2022/10/19 07:29:28;;;;;;;7.63;1.38;;;10.60;99.90;;;;;;5024483;28;20072;-81
2022/10/19 07:31:54;;;;;;;5.53;1.30;;;10.60;99.90;;;;;;5023129;28;20045;-82
2022/10/19 07:34:20;;;;;;;8.77;1.20;;;10.70;99.90;;;;;;5042780;28;20087;-80
2022/10/19 07:36:46;;;;;;;11.25;1.35;;;10.80;99.90;;;;;;5041791;28;20038;-80
2022/10/19 07:39:15;;;;;;;12.50;2.38;;;10.80;99.90;;;;;;5042191;28;20768;-81
2022/10/19 07:41:42;;;;;;;10.65;1.27;;;10.90;99.90;;;;;;5044181;28;20056;-80
2022/10/19 07:44:08;;;;;;;4.50;1.00;;;11.00;99.90;;;;;;5040982;28;20080;-80
2022/10/19 07:46:35;;;;;;;2.85;0.80;;;11.00;99.90;;;;;;5024913;28;20042;-80
2022/10/19 07:49:03;;;;;;;11.63;1.48;;;11.10;99.90;;;;;;5042460;28;20061;-81
2022/10/19 07:51:29;;;;;;;4.43;0.95;;;11.10;99.90;;;;;;5041447;28;20049;-81
2022/10/19 07:53:56;;;;;;;9.40;1.42;;;11.20;99.90;;;;;;5041614;28;20041;-81
2022/10/19 07:56:23;;;;;;;6.88;1.50;;;11.30;99.90;;;;;;5040366;28;20056;-81
2022/10/19 07:58:51;;;;;;;11.30;1.20;;;11.30;99.90;;;;;;5041988;28;20056;-81
2022/10/19 08:01:25;;;;;;;7.38;1.00;;;11.40;99.90;;;;;;5040285;28;20050;-81
2022/10/19 08:03:53;;;;;;;6.93;2.28;;;11.40;99.90;;;;;;5042726;28;20082;-81
2022/10/19 08:06:19;;;;;;;10.95;1.58;;;11.50;99.90;;;;;;5040939;28;20060;-80
2022/10/19 08:08:46;;;;;;;7.15;0.88;;;11.50;99.90;;;;;;5040336;28;20045;-80
2022/10/19 08:11:13;;;;;;;3.55;1.48;;;11.50;99.90;;;;;;5041281;28;20124;-81
2022/10/19 08:13:40;;;;;;;16.33;3.10;;;11.50;99.90;;;;;;5039797;28;20083;-79
2022/10/19 08:16:17;;;;;;;6.50;0.88;;;11.60;99.90;;;;;;5041695;28;20108;-81
2022/10/19 08:18:43;;;;;;;7.10;1.35;;;11.60;99.90;;;;;;5023993;28;20048;-80
2022/10/19 08:21:09;;;;;;;7.03;0.88;;;11.70;99.90;;;;;;5042203;28;20163;-80
2022/10/19 08:23:34;;;;;;;6.88;1.25;;;11.60;99.90;;;;;;5062036;28;20049;-80
2022/10/19 08:26:00;;;;;;;5.90;0.73;;;11.70;99.90;;;;;;5060070;28;20055;-80
2022/10/19 08:28:25;;;;;;;4.32;1.00;;;11.70;99.90;;;;;;5044628;28;20102;-81
2022/10/19 08:30:56;;;;;;;22.08;3.42;;;11.70;99.90;;;;;;5059798;28;20072;-80
2022/10/19 08:33:22;;;;;;;9.75;1.80;;;11.70;99.90;;;;;;5032399;28;20069;-80
2022/10/19 08:35:48;;;;;;;7.25;1.15;;;11.70;99.90;;;;;;5040434;28;20080;-80
2022/10/19 08:38:14;;;;;;;9.30;1.67;;;11.80;99.90;;;;;;5024038;28;20480;-80
2022/10/19 08:40:39;;;;;;;6.10;1.15;;;11.70;99.90;;;;;;5040934;28;20056;-80
2022/10/19 08:43:23;;;;;;;5.80;0.80;;;11.80;99.90;;;;;;5046131;28;20593;-80
2022/10/19 08:46:11;;;;;;;1.95;0.73;;;11.70;99.90;;;;;;5056162;28;20439;-80
2022/10/19 08:48:41;;;;;;;4.70;0.60;;;11.80;99.90;;;;;;5046484;28;20048;-80
2022/10/19 08:51:10;;;;;;;2.75;1.08;;;11.80;99.90;;;;;;5058298;28;20104;-81
2022/10/19 08:53:44;;;;;;;7.90;1.25;;;11.80;99.90;;;;;;5048974;28;20470;-80
2022/10/19 08:56:22;;;;;;;8.10;1.65;;;11.90;99.90;;;;;;5040463;28;20109;-80
2022/10/19 08:59:12;;;;;;;6.90;1.25;;;11.90;99.90;;;;;;5046965;28;20041;-80
2022/10/19 09:01:58;;;;;;;6.43;1.15;;;12.00;99.90;;;;;;5041144;28;20049;-81
2022/10/19 09:04:34;;;;;;;4.20;1.17;;;12.00;99.90;;;;;;5040306;28;20136;-81
2022/10/19 09:07:08;;;;;;;4.40;1.27;;;12.10;99.90;;;;;;5031789;28;20073;-80
2022/10/19 09:09:44;;;;;;;7.00;1.35;;;12.20;99.90;;;;;;5054726;28;20070;-81
2022/10/19 09:12:16;;;;;;;5.47;1.17;;;12.30;99.90;;;;;;5033508;28;20053;-81
2022/10/19 09:15:05;;;;;;;4.05;1.33;;;12.40;99.90;;;;;;5047308;28;20064;-81
2022/10/19 09:17:31;;;;;;;6.63;1.02;;;12.50;99.90;;;;;;5042962;28;20044;-81
2022/10/19 09:20:12;;;;;;;8.68;1.50;;;12.60;99.90;;;;;;5041462;28;20045;-81
2022/10/19 09:22:40;;;;;;;4.30;1.40;;;12.60;99.90;;;;;;5027435;28;20041;-81
2022/10/19 09:25:13;;;;;;;6.75;0.93;;;12.70;99.90;;;;;;5043208;28;20052;-81
2022/10/19 09:27:43;;;;;;;6.22;1.70;;;12.80;99.90;;;;;;5054944;28;20080;-81
2022/10/19 09:30:20;;;;;;;13.55;1.55;;;12.90;99.90;;;;;;5058158;28;20095;-81
2022/10/19 09:32:58;;;;;;;8.85;0.90;;;13.00;99.90;;;;;;5061528;28;20052;-81
2022/10/19 09:35:36;;;;;;;7.20;1.17;;;13.10;99.90;;;;;;5059021;28;20530;-81
2022/10/19 09:38:04;;;;;;;4.22;1.33;;;13.10;99.90;;;;;;5054664;28;20072;-81
2022/10/19 09:40:30;;;;;;;8.02;1.10;;;13.10;99.90;;;;;;5041144;28;20109;-81
2022/10/19 09:42:57;;;;;;;8.60;1.25;;;13.20;99.90;;;;;;5022838;28;20168;-81
2022/10/19 09:45:42;;;;;;;13.48;1.00;;;13.40;99.90;;;;;;5041284;28;20048;-81
2022/10/19 09:48:37;;;;;;;2.55;1.00;;;13.60;99.90;;;;;;5038650;28;20390;-81
2022/10/19 09:51:11;;;;;;;3.88;0.88;;;13.60;99.90;;;;;;5038949;28;20539;-81
2022/10/19 09:53:42;;;;;;;5.40;0.75;;;13.50;99.90;;;;;;5039870;28;20089;-81
2022/10/19 09:56:20;;;;;;;14.25;4.40;;;13.50;99.90;;;;;;5038490;28;20064;-81
2022/10/19 09:58:48;;;;;;;5.10;1.35;;;13.50;99.90;;;;;;5023375;28;20048;-81
2022/10/19 10:01:35;;;;;;;6.50;1.00;;;13.50;99.90;;;;;;5038432;28;20056;-81
2022/10/19 10:04:16;;;;;;;3.90;0.85;;;13.40;99.90;;;;;;5038490;28;20060;-81
2022/10/19 10:06:43;;;;;;;9.52;1.88;;;13.40;99.90;;;;;;5038941;28;20123;-81
2022/10/19 10:09:17;;;;;;;6.90;0.93;;;13.40;99.90;;;;;;5038125;28;20158;-81
2022/10/19 10:11:46;;;;;;;3.33;0.63;;;13.30;99.90;;;;;;5039268;28;20129;-81
2022/10/19 10:14:20;;;;;;;6.90;0.80;;;13.20;99.90;;;;;;5038232;28;20053;-81
2022/10/19 10:16:46;;;;;;;10.07;1.83;;;13.20;99.90;;;;;;5038594;28;20061;-81
2022/10/19 10:19:15;;;;;;;6.28;0.93;;;13.20;99.90;;;;;;5038123;28;20068;-81
2022/10/19 10:21:54;;;;;;;2.28;0.43;;;13.30;99.90;;;;;;5056296;28;20053;-80
2022/10/19 10:24:22;;;;;;;6.15;0.50;;;13.30;99.90;;;;;;5060932;28;20041;-81
2022/10/19 10:26:57;;;;;;;3.53;1.15;;;13.40;99.90;;;;;;5057679;28;20056;-81
2022/10/19 10:29:34;;;;;;;6.53;1.10;;;13.30;99.90;;;;;;5058476;28;20171;-81
2022/10/19 10:32:19;;;;;;;11.02;1.55;;;13.40;99.90;;;;;;5056060;28;20041;-81
2022/10/19 10:35:00;;;;;;;2.47;0.50;;;13.60;99.90;;;;;;5057681;28;20049;-81
2022/10/19 10:37:31;;;;;;;8.43;1.00;;;13.60;99.90;;;;;;5058583;28;20045;-81
2022/10/19 10:39:58;;;;;;;4.47;1.17;;;13.70;99.90;;;;;;5059507;28;20052;-80
2022/10/19 10:42:39;;;;;;;9.00;1.95;;;13.70;99.90;;;;;;5055738;28;20057;-80
2022/10/19 10:45:18;;;;;;;3.28;0.80;;;13.70;99.90;;;;;;5059752;28;20080;-81
2022/10/19 10:47:47;;;;;;;2.58;1.38;;;13.60;99.90;;;;;;5059052;28;20041;-82
2022/10/19 10:50:35;;;;;;;9.02;1.85;;;13.60;99.90;;;;;;5059474;28;20080;-80
2022/10/19 10:53:04;;;;;;;5.72;1.58;;;13.60;99.90;;;;;;5041650;28;20054;-80
2022/10/19 10:55:31;;;;;;;2.53;1.13;;;13.80;99.90;;;;;;5039217;28;20048;-82
2022/10/19 10:58:10;;;;;;;5.18;0.85;;;13.90;99.90;;;;;;5038927;28;20047;-82
2022/10/19 11:00:39;;;;;;;7.75;1.05;;;14.00;99.90;;;;;;5038972;28;20046;-81
2022/10/19 11:03:17;;;;;;;3.50;0.90;;;14.00;99.90;;;;;;5039790;28;20183;-81
2022/10/19 11:05:54;;;;;;;5.03;0.90;;;14.00;99.90;;;;;;5039403;28;20053;-80
2022/10/19 11:08:26;;;;;;;4.72;1.20;;;13.90;99.90;;;;;;5058234;28;20049;-81
2022/10/19 11:11:05;;;;;;;3.10;1.45;;;13.90;99.90;;;;;;5062410;28;20052;-81
2022/10/19 11:13:42;;;;;;;3.00;1.17;;;13.80;99.90;;;;;;5062375;28;20053;-81
2022/10/19 11:16:17;;;;;;;12.98;1.55;;;13.80;99.90;;;;;;5064094;28;20057;-81
2022/10/19 11:19:01;;;;;;;10.07;1.73;;;13.70;99.90;;;;;;5028462;28;20049;-87
2022/10/19 11:21:46;;;;;;;5.15;1.20;;;13.70;99.90;;;;;;5024742;28;20038;-83
2022/10/19 11:24:39;;;;;;;6.20;0.90;;;13.70;99.90;;;;;;5043306;28;20226;-83
2022/10/19 11:27:23;;;;;;;6.28;1.60;;;13.70;99.90;;;;;;5061550;28;20061;-84
2022/10/19 11:30:06;;;;;;;3.38;1.00;;;13.70;99.90;;;;;;5061394;28;20569;-84
2022/10/19 11:32:38;;;;;;;9.20;1.55;;;13.70;99.90;;;;;;5040484;28;20068;-84
2022/10/19 11:35:22;;;;;;;5.95;1.20;;;13.60;99.90;;;;;;5035879;28;20564;-85
2022/10/19 11:38:05;;;;;;;3.50;1.10;;;13.70;99.90;;;;;;5046120;28;20045;-83
2022/10/19 11:40:44;;;;;;;6.25;1.05;;;13.60;99.90;;;;;;5064635;28;20114;-82
2022/10/19 11:43:38;;;;;;;7.72;1.15;;;13.60;99.90;;;;;;5039391;28;20046;-82
2022/10/19 11:46:35;;;;;;;8.80;1.10;;;13.60;99.90;;;;;;5026661;28;20045;-83
2022/10/19 11:49:19;;;;;;;5.45;1.00;;;13.80;99.90;;;;;;5041745;28;20045;-83
2022/10/19 11:52:07;;;;;;;10.00;2.00;;;13.90;99.90;;;;;;5047537;28;20496;-82
2022/10/19 11:54:55;;;;;;;8.73;3.45;;;13.90;99.90;;;;;;5056914;28;20044;-82
2022/10/19 11:57:23;;;;;;;13.20;2.10;;;14.00;99.90;;;;;;5047489;28;20100;-82
2022/10/19 12:00:02;;;;;;;5.38;1.20;;;14.10;99.90;;;;;;5046044;28;20049;-83
2022/10/19 12:02:49;;;;;;;3.38;1.13;;;14.10;99.90;;;;;;5044629;28;20049;-83
2022/10/19 12:05:40;;;;;;;7.03;0.88;;;14.10;99.90;;;;;;5026439;28;20128;-83
2022/10/19 12:08:18;;;;;;;5.53;0.80;;;14.20;99.90;;;;;;5047390;28;20057;-83
2022/10/19 12:10:55;;;;;;;1.40;0.70;;;14.30;99.90;;;;;;5025240;28;20054;-83
2022/10/19 12:13:46;;;;;;;6.05;1.73;;;14.40;99.90;;;;;;5042270;28;20507;-82
2022/10/19 12:16:13;;;;;;;2.90;0.85;;;14.50;99.90;;;;;;5058735;28;20060;-84
2022/10/19 12:18:44;;;;;;;4.65;1.20;;;14.50;99.90;;;;;;5012614;28;20052;-83
2022/10/19 12:21:25;;;;;;;3.88;2.00;;;14.50;99.90;;;;;;5040560;28;20050;-83
2022/10/19 12:23:52;;;;;;;6.45;1.48;;;14.40;99.90;;;;;;5024655;28;20488;-82
2022/10/19 12:26:20;;;;;;;6.47;1.00;;;14.40;99.90;;;;;;5023428;28;20183;-83
2022/10/19 12:28:51;;;;;;;6.32;1.00;;;14.40;99.90;;;;;;5027968;28;20053;-83
2022/10/19 12:31:17;;;;;;;3.55;1.00;;;14.30;99.90;;;;;;5023771;28;20041;-83
2022/10/19 12:34:04;;;;;;;7.78;2.08;;;14.20;99.90;;;;;;5024193;28;20091;-83
2022/10/19 12:36:38;;;;;;;4.38;1.00;;;14.10;99.90;;;;;;5060974;28;20067;-83
2022/10/19 12:39:38;;;;;;;6.03;0.90;;;14.00;99.90;;;;;;5038008;28;20050;-83
2022/10/19 12:42:09;;;;;;;3.10;0.80;;;14.00;99.90;;;;;;5041118;28;20060;-84
2022/10/19 12:44:53;;;;;;;4.68;1.10;;;13.90;99.90;;;;;;5024068;28;20100;-82
2022/10/19 12:47:21;;;;;;;10.43;0.98;;;13.90;99.90;;;;;;5035032;28;20041;-83
2022/10/19 12:49:49;;;;;;;9.80;1.95;;;14.00;99.90;;;;;;5056865;28;20128;-82
2022/10/19 12:52:43;;;;;;;8.77;1.25;;;14.00;99.90;;;;;;5022855;28;20053;-83
2022/10/19 12:55:33;;;;;;;3.65;1.23;;;14.00;99.90;;;;;;5023966;28;20557;-83
2022/10/19 12:58:16;;;;;;;5.55;1.60;;;13.90;99.90;;;;;;5040350;28;20042;-83
2022/10/19 13:01:00;;;;;;;6.82;1.25;;;13.80;99.90;;;;;;5025055;28;20386;-83
2022/10/19 13:03:33;;;;;;;6.97;2.17;;;13.80;99.90;;;;;;5023706;28;20038;-83
2022/10/19 13:06:14;;;;;;;5.63;1.42;;;13.70;99.90;;;;;;5055395;28;20049;-85
2022/10/19 13:08:52;;;;;;;6.88;1.05;;;13.70;99.90;;;;;;5059474;28;20068;-82
2022/10/19 13:11:19;;;;;;;7.28;1.50;;;13.60;99.90;;;;;;5039958;28;20076;-83
2022/10/19 13:14:00;;;;;;;1.67;0.88;;;13.60;99.90;;;;;;5033071;28;20049;-83